Salem, OR

10:49 PM PDT on September 18, 2014 (GMT -0700)
Popcorn Hill | Change Station
CLOSE
Current Station
Personal Weather Station
Location: Salem, OR
Elevation: 635 ft
Nearby Weather Stations

Elev 635 ft 44.96 °N, 123.11 °W | Updated 10 minutes ago

Mostly Cloudy
Mostly Cloudy
63.0 °F
Feels Like 63.0 °F
N
0.0
Wind Variable Wind from WSW
Gusts 6.0 mph

Today
High -- | Low -- °F
--% Chance of Precip.
Yesterday
High -- | Low -- °F
Precip. -- in
6:54 AM 7:16 PM
Waning Crescent, 21% visible
Pressure 29.96 in
Visibility 10.0 miles
Clouds Mostly Cloudy 4300 ft
Mostly Cloudy 7000 ft
Dew Point 56 °F
Humidity 77%
Rainfall 0.00 in
Snow Depth 0 in , 1 in , 0 in
UV 0 out of 12
Pollen .40 out of 12
Air Quality Not available.
Flu Activity Not available.
METAR KSLE 190456Z AUTO 26005KT 10SM BKN043 BKN070 19/13 A2996 RMK AO2 SLP143 T01940128

More Conditions Fewer Conditions

Pressure 29.96 in
Visibility 10.0 miles
Clouds Mostly Cloudy 4300 ft
Mostly Cloudy 7000 ft
Dew Point 56 °F
Humidity 77%
Rainfall 0.00 in
Snow Depth 0 in , 1 in , 0 in
UV 0 out of 12
Pollen .40 out of 12
Air Quality Not available.
Flu Activity Not available.
METAR KSLE 190456Z AUTO 26005KT 10SM BKN043 BKN070 19/13 A2996 RMK AO2 SLP143 T01940128

More Conditions Fewer Conditions

10-Day Weather Forecast

Almanac

Astronomy

Sep. 18, 2014 Rise Set
Actual Time 6:54 AM PDT 7:16 PM PDT
Civil Twilight 6:25 AM PDT 7:46 PM PDT
Nautical Twilight 5:50 AM PDT 8:20 PM PDT
Astronomical Twilight 5:14 AM PDT 8:56 PM PDT
Moon 1:41 AM PDT (9/18) 4:21 PM PDT (9/18)
Length of Visible Light 13h 21m
Length of Day
12h 22m
Tomorrow will be 3m 7s shorter.
Waning Crescent, 21% of the Moon is Illuminated
Sep 19
Waning Crescent
Sep 24
New
Oct 1
First Quarter
Oct 8
Full
Oct 15
Last Quarter

Yesterday's Extremes

State Highs State Lows

Community

WunderPhotos

Upload Photos

1,754,573 photos uploaded!

Nearby

Snow Depth

Station Depth Elevation
Fish Lake 0 in 4665 ft
Lucky Strike 1 in 5050 ft
Blue Mountain Spring 0 in 5900 ft
Madison Butte 0 in 5250 ft
Diamond Lake 0 in 5315 ft

Earthquake Activity

City Distance Mag. Time & Date
Morton, Washington 96 miles 3.0 5:43 AM PDT
2014-09-16
Minimum magnitude displayed is 2.5.

Coastal Water Temperatures

Place Temperature
No Stations Reporting

Nearby Weather Stations